sensor_id;sensor_type;location;lat;lon;timestamp;temperature;humidity
2977;DHT22;1498;51.500;7.440;2023-02-05T00:01:50;7.60;99.90
2977;DHT22;1498;51.500;7.440;2023-02-05T00:04:15;7.60;99.90
2977;DHT22;1498;51.500;7.440;2023-02-05T00:06:41;7.70;99.90
2977;DHT22;1498;51.500;7.440;2023-02-05T00:09:07;7.70;99.90
2977;DHT22;1498;51.500;7.440;2023-02-05T00:11:32;7.70;99.90
2977;DHT22;1498;51.500;7.440;2023-02-05T00:13:58;7.70;99.90
2977;DHT22;1498;51.500;7.440;2023-02-05T00:16:24;7.60;99.90
2977;DHT22;1498;51.500;7.440;2023-02-05T00:18:50;7.60;99.90
2977;DHT22;1498;51.500;7.440;2023-02-05T00:21:19;7.60;99.90
2977;DHT22;1498;51.500;7.440;2023-02-05T00:23:46;7.60;99.90
2977;DHT22;1498;51.500;7.440;2023-02-05T00:26:12;7.60;99.90
2977;DHT22;1498;51.500;7.440;2023-02-05T00:28:39;7.60;99.90
2977;DHT22;1498;51.500;7.440;2023-02-05T00:31:16;7.60;99.90
2977;DHT22;1498;51.500;7.440;2023-02-05T00:33:42;7.60;99.90
2977;DHT22;1498;51.500;7.440;2023-02-05T00:36:09;7.60;99.90
2977;DHT22;1498;51.500;7.440;2023-02-05T00:38:35;7.60;99.90
2977;DHT22;1498;51.500;7.440;2023-02-05T00:41:02;7.60;99.90
2977;DHT22;1498;51.500;7.440;2023-02-05T00:43:27;7.60;99.90
2977;DHT22;1498;51.500;7.440;2023-02-05T00:45:53;7.60;99.90
2977;DHT22;1498;51.500;7.440;2023-02-05T00:48:19;7.70;99.90
2977;DHT22;1498;51.500;7.440;2023-02-05T00:50:49;7.70;99.90
2977;DHT22;1498;51.500;7.440;2023-02-05T00:53:15;7.70;99.90
2977;DHT22;1498;51.500;7.440;2023-02-05T00:55:41;7.70;99.90
2977;DHT22;1498;51.500;7.440;2023-02-05T00:58:06;7.70;99.90
2977;DHT22;1498;51.500;7.440;2023-02-05T01:00:32;7.70;99.90
2977;DHT22;1498;51.500;7.440;2023-02-05T01:02:58;7.70;99.90
2977;DHT22;1498;51.500;7.440;2023-02-05T01:05:24;7.70;99.90
2977;DHT22;1498;51.500;7.440;2023-02-05T01:07:50;7.70;99.90
2977;DHT22;1498;51.500;7.440;2023-02-05T01:10:15;7.80;99.90
2977;DHT22;1498;51.500;7.440;2023-02-05T01:12:41;7.80;99.90
2977;DHT22;1498;51.500;7.440;2023-02-05T01:15:07;7.80;99.90
2977;DHT22;1498;51.500;7.440;2023-02-05T01:17:33;7.70;99.90
2977;DHT22;1498;51.500;7.440;2023-02-05T01:19:59;7.70;99.90
2977;DHT22;1498;51.500;7.440;2023-02-05T01:22:24;7.80;99.90
2977;DHT22;1498;51.500;7.440;2023-02-05T01:24:50;7.80;99.90
2977;DHT22;1498;51.500;7.440;2023-02-05T01:27:16;7.80;99.90
2977;DHT22;1498;51.500;7.440;2023-02-05T01:29:41;7.80;99.90
2977;DHT22;1498;51.500;7.440;2023-02-05T01:32:07;7.80;99.90
2977;DHT22;1498;51.500;7.440;2023-02-05T01:34:33;7.90;99.90
2977;DHT22;1498;51.500;7.440;2023-02-05T01:36:58;7.90;99.90
2977;DHT22;1498;51.500;7.440;2023-02-05T01:39:24;7.90;99.90
2977;DHT22;1498;51.500;7.440;2023-02-05T01:41:49;7.90;99.90
2977;DHT22;1498;51.500;7.440;2023-02-05T01:44:17;7.90;99.90
2977;DHT22;1498;51.500;7.440;2023-02-05T01:46:45;7.90;99.90
2977;DHT22;1498;51.500;7.440;2023-02-05T01:51:50;8.00;99.90
2977;DHT22;1498;51.500;7.440;2023-02-05T01:54:19;8.00;99.90
2977;DHT22;1498;51.500;7.440;2023-02-05T01:56:54;8.00;99.90
2977;DHT22;1498;51.500;7.440;2023-02-05T01:59:22;8.00;99.90
2977;DHT22;1498;51.500;7.440;2023-02-05T02:01:49;8.00;99.90
2977;DHT22;1498;51.500;7.440;2023-02-05T02:04:26;8.00;99.90
2977;DHT22;1498;51.500;7.440;2023-02-05T02:06:54;8.10;99.90
2977;DHT22;1498;51.500;7.440;2023-02-05T02:09:20;8.10;99.90
2977;DHT22;1498;51.500;7.440;2023-02-05T02:11:46;8.10;99.90
2977;DHT22;1498;51.500;7.440;2023-02-05T02:14:13;8.00;99.90
2977;DHT22;1498;51.500;7.440;2023-02-05T02:16:39;8.00;99.90
2977;DHT22;1498;51.500;7.440;2023-02-05T02:19:12;8.00;99.90
2977;DHT22;1498;51.500;7.440;2023-02-05T02:24:30;8.00;99.90
2977;DHT22;1498;51.500;7.440;2023-02-05T02:27:04;8.10;99.90
2977;DHT22;1498;51.500;7.440;2023-02-05T02:29:47;8.10;99.90
2977;DHT22;1498;51.500;7.440;2023-02-05T02:32:39;8.10;99.90
2977;DHT22;1498;51.500;7.440;2023-02-05T02:37:44;8.20;99.90
2977;DHT22;1498;51.500;7.440;2023-02-05T02:40:39;8.20;99.90
2977;DHT22;1498;51.500;7.440;2023-02-05T02:43:16;8.30;99.90
2977;DHT22;1498;51.500;7.440;2023-02-05T02:45:52;8.30;99.90
2977;DHT22;1498;51.500;7.440;2023-02-05T02:48:22;8.30;99.90
2977;DHT22;1498;51.500;7.440;2023-02-05T02:50:51;8.30;99.90
2977;DHT22;1498;51.500;7.440;2023-02-05T02:53:23;8.40;99.90
2977;DHT22;1498;51.500;7.440;2023-02-05T02:55:51;8.40;99.90
2977;DHT22;1498;51.500;7.440;2023-02-05T02:58:22;8.30;99.90
2977;DHT22;1498;51.500;7.440;2023-02-05T03:00:50;8.40;99.90
2977;DHT22;1498;51.500;7.440;2023-02-05T03:03:19;8.40;99.90
2977;DHT22;1498;51.500;7.440;2023-02-05T03:05:47;8.40;99.90
2977;DHT22;1498;51.500;7.440;2023-02-05T03:08:39;8.40;99.90
2977;DHT22;1498;51.500;7.440;2023-02-05T03:11:11;8.40;99.90
2977;DHT22;1498;51.500;7.440;2023-02-05T03:13:37;8.50;99.90
2977;DHT22;1498;51.500;7.440;2023-02-05T03:16:04;8.50;99.90
2977;DHT22;1498;51.500;7.440;2023-02-05T03:18:30;8.50;99.90
2977;DHT22;1498;51.500;7.440;2023-02-05T03:21:33;8.50;99.90
2977;DHT22;1498;51.500;7.440;2023-02-05T03:23:49;8.40;99.90
2977;DHT22;1498;51.500;7.440;2023-02-05T03:26:23;8.40;99.90
2977;DHT22;1498;51.500;7.440;2023-02-05T03:28:49;8.40;99.90
2977;DHT22;1498;51.500;7.440;2023-02-05T03:37:05;8.40;99.90
2977;DHT22;1498;51.500;7.440;2023-02-05T05:32:25;8.50;99.90
2977;DHT22;1498;51.500;7.440;2023-02-05T05:34:50;8.40;99.90
2977;DHT22;1498;51.500;7.440;2023-02-05T05:37:16;8.50;99.90
2977;DHT22;1498;51.500;7.440;2023-02-05T05:39:41;8.50;99.90
2977;DHT22;1498;51.500;7.440;2023-02-05T05:42:26;8.40;99.90
2977;DHT22;1498;51.500;7.440;2023-02-05T05:45:10;8.50;99.90
2977;DHT22;1498;51.500;7.440;2023-02-05T05:47:35;8.50;99.90
2977;DHT22;1498;51.500;7.440;2023-02-05T05:50:01;8.50;99.90
2977;DHT22;1498;51.500;7.440;2023-02-05T05:52:27;8.60;99.90
2977;DHT22;1498;51.500;7.440;2023-02-05T05:54:52;8.60;99.90
2977;DHT22;1498;51.500;7.440;2023-02-05T05:57:18;8.50;99.90
2977;DHT22;1498;51.500;7.440;2023-02-05T05:59:43;8.50;99.90
2977;DHT22;1498;51.500;7.440;2023-02-05T06:02:09;8.50;99.90
2977;DHT22;1498;51.500;7.440;2023-02-05T06:04:34;8.50;99.90
2977;DHT22;1498;51.500;7.440;2023-02-05T06:07:00;8.50;99.90
2977;DHT22;1498;51.500;7.440;2023-02-05T06:09:26;8.50;99.90
2977;DHT22;1498;51.500;7.440;2023-02-05T06:11:52;8.50;99.90
2977;DHT22;1498;51.500;7.440;2023-02-05T06:14:17;8.50;99.90
2977;DHT22;1498;51.500;7.440;2023-02-05T06:16:43;8.50;99.90
2977;DHT22;1498;51.500;7.440;2023-02-05T06:19:08;8.60;99.90
2977;DHT22;1498;51.500;7.440;2023-02-05T06:21:34;8.60;99.90
2977;DHT22;1498;51.500;7.440;2023-02-05T06:23:59;8.60;99.90
2977;DHT22;1498;51.500;7.440;2023-02-05T06:26:25;8.60;99.90
2977;DHT22;1498;51.500;7.440;2023-02-05T06:28:50;8.60;99.90
2977;DHT22;1498;51.500;7.440;2023-02-05T06:31:16;8.60;99.90
2977;DHT22;1498;51.500;7.440;2023-02-05T06:33:42;8.70;99.90
2977;DHT22;1498;51.500;7.440;2023-02-05T06:36:08;8.70;99.90
2977;DHT22;1498;51.500;7.440;2023-02-05T06:38:34;8.70;99.90
2977;DHT22;1498;51.500;7.440;2023-02-05T06:40:59;8.80;99.90
2977;DHT22;1498;51.500;7.440;2023-02-05T06:43:25;8.70;99.90
2977;DHT22;1498;51.500;7.440;2023-02-05T06:45:51;8.70;99.90
2977;DHT22;1498;51.500;7.440;2023-02-05T06:48:16;8.70;99.90
2977;DHT22;1498;51.500;7.440;2023-02-05T06:50:42;8.70;99.90
2977;DHT22;1498;51.500;7.440;2023-02-05T06:53:08;8.70;99.90
2977;DHT22;1498;51.500;7.440;2023-02-05T06:55:33;8.80;99.90
2977;DHT22;1498;51.500;7.440;2023-02-05T06:57:59;8.80;99.90
2977;DHT22;1498;51.500;7.440;2023-02-05T07:00:24;8.80;99.90
2977;DHT22;1498;51.500;7.440;2023-02-05T07:02:50;8.80;99.90
2977;DHT22;1498;51.500;7.440;2023-02-05T07:05:16;8.80;99.90
2977;DHT22;1498;51.500;7.440;2023-02-05T07:07:41;8.80;99.90
2977;DHT22;1498;51.500;7.440;2023-02-05T07:10:07;8.80;99.90
2977;DHT22;1498;51.500;7.440;2023-02-05T07:12:33;8.80;99.90
2977;DHT22;1498;51.500;7.440;2023-02-05T07:14:58;8.80;99.90
2977;DHT22;1498;51.500;7.440;2023-02-05T07:17:24;8.80;99.90
2977;DHT22;1498;51.500;7.440;2023-02-05T07:19:50;8.80;99.90
2977;DHT22;1498;51.500;7.440;2023-02-05T07:22:15;8.80;99.90
2977;DHT22;1498;51.500;7.440;2023-02-05T07:24:41;8.80;99.90
2977;DHT22;1498;51.500;7.440;2023-02-05T07:27:06;8.90;99.90
2977;DHT22;1498;51.500;7.440;2023-02-05T07:29:32;8.90;99.90
2977;DHT22;1498;51.500;7.440;2023-02-05T07:31:57;8.80;99.90
2977;DHT22;1498;51.500;7.440;2023-02-05T07:34:23;8.90;99.90
2977;DHT22;1498;51.500;7.440;2023-02-05T07:36:50;8.90;99.90
2977;DHT22;1498;51.500;7.440;2023-02-05T07:39:16;8.90;99.90
2977;DHT22;1498;51.500;7.440;2023-02-05T07:41:42;8.80;99.90
2977;DHT22;1498;51.500;7.440;2023-02-05T07:44:07;8.80;99.90
2977;DHT22;1498;51.500;7.440;2023-02-05T07:46:33;8.80;99.90
2977;DHT22;1498;51.500;7.440;2023-02-05T07:48:58;8.80;99.90
2977;DHT22;1498;51.500;7.440;2023-02-05T07:51:24;8.80;99.90
2977;DHT22;1498;51.500;7.440;2023-02-05T07:53:50;8.80;99.90
2977;DHT22;1498;51.500;7.440;2023-02-05T07:56:17;8.80;99.90
2977;DHT22;1498;51.500;7.440;2023-02-05T07:58:45;8.90;99.90
2977;DHT22;1498;51.500;7.440;2023-02-05T08:01:11;8.80;99.90
2977;DHT22;1498;51.500;7.440;2023-02-05T08:03:37;8.90;99.90
2977;DHT22;1498;51.500;7.440;2023-02-05T08:06:04;8.90;99.90
2977;DHT22;1498;51.500;7.440;2023-02-05T08:08:30;9.00;99.90
2977;DHT22;1498;51.500;7.440;2023-02-05T08:11:00;9.00;99.90
2977;DHT22;1498;51.500;7.440;2023-02-05T08:13:27;9.00;99.90
2977;DHT22;1498;51.500;7.440;2023-02-05T08:15:53;9.00;99.90
2977;DHT22;1498;51.500;7.440;2023-02-05T08:18:18;9.00;99.90
2977;DHT22;1498;51.500;7.440;2023-02-05T08:20:44;8.90;99.90
2977;DHT22;1498;51.500;7.440;2023-02-05T08:23:10;8.90;99.90
2977;DHT22;1498;51.500;7.440;2023-02-05T08:25:37;8.90;99.90
2977;DHT22;1498;51.500;7.440;2023-02-05T08:28:03;8.80;99.90
2977;DHT22;1498;51.500;7.440;2023-02-05T08:30:29;8.90;99.90
2977;DHT22;1498;51.500;7.440;2023-02-05T08:32:54;8.90;99.90
2977;DHT22;1498;51.500;7.440;2023-02-05T08:35:20;8.90;99.90
2977;DHT22;1498;51.500;7.440;2023-02-05T08:37:45;8.80;99.90
2977;DHT22;1498;51.500;7.440;2023-02-05T08:40:11;8.90;99.90
2977;DHT22;1498;51.500;7.440;2023-02-05T08:42:37;8.90;99.90
2977;DHT22;1498;51.500;7.440;2023-02-05T08:45:03;8.90;99.90
2977;DHT22;1498;51.500;7.440;2023-02-05T08:47:33;8.80;99.90
2977;DHT22;1498;51.500;7.440;2023-02-05T08:49:59;8.80;99.90
2977;DHT22;1498;51.500;7.440;2023-02-05T08:52:24;8.70;99.90
2977;DHT22;1498;51.500;7.440;2023-02-05T08:54:50;8.80;99.90
2977;DHT22;1498;51.500;7.440;2023-02-05T08:57:15;8.70;99.90
2977;DHT22;1498;51.500;7.440;2023-02-05T08:59:41;8.70;99.90
2977;DHT22;1498;51.500;7.440;2023-02-05T09:02:08;8.70;99.90
2977;DHT22;1498;51.500;7.440;2023-02-05T09:04:35;8.80;99.90
2977;DHT22;1498;51.500;7.440;2023-02-05T09:07:01;8.80;99.90
2977;DHT22;1498;51.500;7.440;2023-02-05T09:09:26;8.80;99.90
2977;DHT22;1498;51.500;7.440;2023-02-05T09:11:52;8.90;99.90
2977;DHT22;1498;51.500;7.440;2023-02-05T09:14:17;8.90;99.90
2977;DHT22;1498;51.500;7.440;2023-02-05T09:16:43;8.90;99.90
2977;DHT22;1498;51.500;7.440;2023-02-05T09:19:09;8.90;99.90
2977;DHT22;1498;51.500;7.440;2023-02-05T09:21:34;8.90;99.90
2977;DHT22;1498;51.500;7.440;2023-02-05T09:24:00;8.90;99.90
2977;DHT22;1498;51.500;7.440;2023-02-05T09:26:25;9.00;99.90
2977;DHT22;1498;51.500;7.440;2023-02-05T09:28:51;8.90;99.90
2977;DHT22;1498;51.500;7.440;2023-02-05T09:31:18;8.90;99.90
2977;DHT22;1498;51.500;7.440;2023-02-05T09:33:45;8.90;99.90
2977;DHT22;1498;51.500;7.440;2023-02-05T09:36:18;8.90;99.90
2977;DHT22;1498;51.500;7.440;2023-02-05T09:38:45;8.90;99.90
2977;DHT22;1498;51.500;7.440;2023-02-05T09:44:31;9.20;99.90
2977;DHT22;1498;51.500;7.440;2023-02-05T09:52:22;9.20;99.90
2977;DHT22;1498;51.500;7.440;2023-02-05T09:54:54;9.20;99.90
2977;DHT22;1498;51.500;7.440;2023-02-05T09:57:33;9.20;99.90
2977;DHT22;1498;51.500;7.440;2023-02-05T09:59:59;9.20;99.90
2977;DHT22;1498;51.500;7.440;2023-02-05T10:02:36;9.20;99.90
2977;DHT22;1498;51.500;7.440;2023-02-05T10:05:13;9.00;99.90
2977;DHT22;1498;51.500;7.440;2023-02-05T10:07:57;8.90;99.90
2977;DHT22;1498;51.500;7.440;2023-02-05T10:10:27;8.80;99.90
2977;DHT22;1498;51.500;7.440;2023-02-05T10:13:09;8.80;99.90
2977;DHT22;1498;51.500;7.440;2023-02-05T10:26:41;8.80;99.90
2977;DHT22;1498;51.500;7.440;2023-02-05T10:36:54;8.90;99.90
2977;DHT22;1498;51.500;7.440;2023-02-05T10:39:24;9.00;99.90
2977;DHT22;1498;51.500;7.440;2023-02-05T10:44:31;8.80;99.90
2977;DHT22;1498;51.500;7.440;2023-02-05T10:47:21;8.80;99.90
2977;DHT22;1498;51.500;7.440;2023-02-05T10:52:39;8.70;99.90
2977;DHT22;1498;51.500;7.440;2023-02-05T10:55:05;8.70;99.90
2977;DHT22;1498;51.500;7.440;2023-02-05T10:57:35;8.70;99.90
2977;DHT22;1498;51.500;7.440;2023-02-05T11:00:21;8.70;99.90
2977;DHT22;1498;51.500;7.440;2023-02-05T11:02:52;8.70;99.90
2977;DHT22;1498;51.500;7.440;2023-02-05T11:07:56;8.70;99.90
2977;DHT22;1498;51.500;7.440;2023-02-05T11:10:28;8.70;99.90
2977;DHT22;1498;51.500;7.440;2023-02-05T11:12:58;8.70;99.90
2977;DHT22;1498;51.500;7.440;2023-02-05T11:15:29;8.80;99.90
2977;DHT22;1498;51.500;7.440;2023-02-05T11:18:00;8.70;99.90
2977;DHT22;1498;51.500;7.440;2023-02-05T11:20:35;8.70;99.90
2977;DHT22;1498;51.500;7.440;2023-02-05T11:23:16;8.70;99.90
2977;DHT22;1498;51.500;7.440;2023-02-05T11:26:26;8.80;99.90
2977;DHT22;1498;51.500;7.440;2023-02-05T11:28:45;8.70;99.90
2977;DHT22;1498;51.500;7.440;2023-02-05T11:31:27;8.70;99.90
2977;DHT22;1498;51.500;7.440;2023-02-05T11:34:14;8.70;99.90
2977;DHT22;1498;51.500;7.440;2023-02-05T11:36:49;8.70;99.90
2977;DHT22;1498;51.500;7.440;2023-02-05T11:39:31;8.70;99.90
2977;DHT22;1498;51.500;7.440;2023-02-05T11:42:20;8.70;99.90
2977;DHT22;1498;51.500;7.440;2023-02-05T11:44:58;8.70;99.90
2977;DHT22;1498;51.500;7.440;2023-02-05T11:47:28;8.70;99.90
2977;DHT22;1498;51.500;7.440;2023-02-05T11:49:56;8.70;99.90
2977;DHT22;1498;51.500;7.440;2023-02-05T11:52:25;8.70;99.90
2977;DHT22;1498;51.500;7.440;2023-02-05T11:54:54;8.70;99.90
2977;DHT22;1498;51.500;7.440;2023-02-05T12:02:35;8.80;99.90
2977;DHT22;1498;51.500;7.440;2023-02-05T12:05:26;8.80;99.90
2977;DHT22;1498;51.500;7.440;2023-02-05T12:11:04;8.80;99.90
2977;DHT22;1498;51.500;7.440;2023-02-05T12:13:43;8.70;99.90
2977;DHT22;1498;51.500;7.440;2023-02-05T12:19:04;8.70;99.90
2977;DHT22;1498;51.500;7.440;2023-02-05T12:24:46;8.80;99.90
2977;DHT22;1498;51.500;7.440;2023-02-05T12:32:49;8.70;99.90
2977;DHT22;1498;51.500;7.440;2023-02-05T12:38:37;8.70;99.90
2977;DHT22;1498;51.500;7.440;2023-02-05T12:43:49;8.80;99.90
2977;DHT22;1498;51.500;7.440;2023-02-05T12:49:32;8.70;99.90
2977;DHT22;1498;51.500;7.440;2023-02-05T12:52:30;8.70;99.90
2977;DHT22;1498;51.500;7.440;2023-02-05T12:58:03;8.60;99.90
2977;DHT22;1498;51.500;7.440;2023-02-05T13:03:05;8.70;99.90
2977;DHT22;1498;51.500;7.440;2023-02-05T13:05:40;8.70;99.90
2977;DHT22;1498;51.500;7.440;2023-02-05T13:08:41;8.70;99.90
2977;DHT22;1498;51.500;7.440;2023-02-05T13:11:14;8.60;99.90
2977;DHT22;1498;51.500;7.440;2023-02-05T13:13:53;8.50;99.90
2977;DHT22;1498;51.500;7.440;2023-02-05T13:16:24;8.60;99.90
2977;DHT22;1498;51.500;7.440;2023-02-05T13:19:05;8.60;99.90
2977;DHT22;1498;51.500;7.440;2023-02-05T13:21:36;8.60;99.90
2977;DHT22;1498;51.500;7.440;2023-02-05T13:24:30;8.60;99.90
2977;DHT22;1498;51.500;7.440;2023-02-05T13:27:28;8.60;99.90
2977;DHT22;1498;51.500;7.440;2023-02-05T13:30:20;8.70;99.90
2977;DHT22;1498;51.500;7.440;2023-02-05T13:32:49;8.60;99.90
2977;DHT22;1498;51.500;7.440;2023-02-05T13:35:16;8.50;99.90
2977;DHT22;1498;51.500;7.440;2023-02-05T13:40:44;8.60;99.90
2977;DHT22;1498;51.500;7.440;2023-02-05T13:46:18;8.60;99.90
2977;DHT22;1498;51.500;7.440;2023-02-05T13:57:40;8.60;99.90
2977;DHT22;1498;51.500;7.440;2023-02-05T14:00:13;8.60;99.90
2977;DHT22;1498;51.500;7.440;2023-02-05T14:02:50;8.60;99.90
2977;DHT22;1498;51.500;7.440;2023-02-05T14:05:33;8.60;99.90
2977;DHT22;1498;51.500;7.440;2023-02-05T14:08:00;8.50;99.90
2977;DHT22;1498;51.500;7.440;2023-02-05T14:10:34;8.60;99.90
2977;DHT22;1498;51.500;7.440;2023-02-05T14:15:46;8.70;99.90
2977;DHT22;1498;51.500;7.440;2023-02-05T14:23:54;8.40;99.90
2977;DHT22;1498;51.500;7.440;2023-02-05T14:26:49;8.40;99.90
2977;DHT22;1498;51.500;7.440;2023-02-05T14:29:39;8.40;99.90
2977;DHT22;1498;51.500;7.440;2023-02-05T14:32:12;8.40;99.90
2977;DHT22;1498;51.500;7.440;2023-02-05T14:37:03;8.40;99.90
2977;DHT22;1498;51.500;7.440;2023-02-05T14:39:33;8.40;99.90
2977;DHT22;1498;51.500;7.440;2023-02-05T14:42:03;8.40;99.90
2977;DHT22;1498;51.500;7.440;2023-02-05T14:44:34;8.30;99.90
2977;DHT22;1498;51.500;7.440;2023-02-05T14:52:00;8.20;99.90
2977;DHT22;1498;51.500;7.440;2023-02-05T14:54:30;8.30;99.90
2977;DHT22;1498;51.500;7.440;2023-02-05T14:59:49;8.30;99.90
2977;DHT22;1498;51.500;7.440;2023-02-05T15:02:48;8.30;99.90
2977;DHT22;1498;51.500;7.440;2023-02-05T15:13:29;8.20;99.90
2977;DHT22;1498;51.500;7.440;2023-02-05T15:18:42;8.20;99.90
2977;DHT22;1498;51.500;7.440;2023-02-05T15:22:01;8.20;99.90
2977;DHT22;1498;51.500;7.440;2023-02-05T15:24:21;8.20;99.90
2977;DHT22;1498;51.500;7.440;2023-02-05T15:27:17;8.20;99.90
2977;DHT22;1498;51.500;7.440;2023-02-05T15:29:51;8.20;99.90
2977;DHT22;1498;51.500;7.440;2023-02-05T15:32:45;8.20;99.90
2977;DHT22;1498;51.500;7.440;2023-02-05T15:35:20;8.30;99.90
2977;DHT22;1498;51.500;7.440;2023-02-05T15:40:39;8.30;99.90
2977;DHT22;1498;51.500;7.440;2023-02-05T15:43:16;8.30;99.90
2977;DHT22;1498;51.500;7.440;2023-02-05T15:45:43;8.30;99.90
2977;DHT22;1498;51.500;7.440;2023-02-05T15:50:43;8.30;99.90
2977;DHT22;1498;51.500;7.440;2023-02-05T15:53:38;8.30;99.90
2977;DHT22;1498;51.500;7.440;2023-02-05T15:56:14;8.40;99.90
2977;DHT22;1498;51.500;7.440;2023-02-05T15:58:50;8.40;99.90
2977;DHT22;1498;51.500;7.440;2023-02-05T16:01:46;8.40;99.90
2977;DHT22;1498;51.500;7.440;2023-02-05T16:04:23;8.40;99.90
2977;DHT22;1498;51.500;7.440;2023-02-05T16:06:51;8.40;99.90
2977;DHT22;1498;51.500;7.440;2023-02-05T16:09:18;8.40;99.90
2977;DHT22;1498;51.500;7.440;2023-02-05T16:11:44;8.40;99.90
2977;DHT22;1498;51.500;7.440;2023-02-05T16:14:16;8.40;99.90
2977;DHT22;1498;51.500;7.440;2023-02-05T16:19:44;8.40;99.90
2977;DHT22;1498;51.500;7.440;2023-02-05T16:22:30;8.40;99.90
2977;DHT22;1498;51.500;7.440;2023-02-05T16:25:04;8.50;99.90
2977;DHT22;1498;51.500;7.440;2023-02-05T16:27:43;8.60;99.90
2977;DHT22;1498;51.500;7.440;2023-02-05T16:30:31;8.50;99.90
2977;DHT22;1498;51.500;7.440;2023-02-05T16:32:59;8.50;99.90
2977;DHT22;1498;51.500;7.440;2023-02-05T16:35:34;8.50;99.90
2977;DHT22;1498;51.500;7.440;2023-02-05T16:38:02;8.50;99.90
2977;DHT22;1498;51.500;7.440;2023-02-05T16:40:36;8.50;99.90
2977;DHT22;1498;51.500;7.440;2023-02-05T16:43:38;8.50;99.90
2977;DHT22;1498;51.500;7.440;2023-02-05T16:50:59;8.50;99.90
2977;DHT22;1498;51.500;7.440;2023-02-05T16:53:48;8.50;99.90
2977;DHT22;1498;51.500;7.440;2023-02-05T16:56:22;8.50;99.90
2977;DHT22;1498;51.500;7.440;2023-02-05T16:58:53;8.50;99.90
2977;DHT22;1498;51.500;7.440;2023-02-05T17:01:39;8.50;99.90
2977;DHT22;1498;51.500;7.440;2023-02-05T17:04:07;8.50;99.90
2977;DHT22;1498;51.500;7.440;2023-02-05T17:06:34;8.40;99.90
2977;DHT22;1498;51.500;7.440;2023-02-05T17:09:01;8.50;99.90
2977;DHT22;1498;51.500;7.440;2023-02-05T17:11:39;8.50;99.90
2977;DHT22;1498;51.500;7.440;2023-02-05T17:17:15;8.30;99.90
2977;DHT22;1498;51.500;7.440;2023-02-05T17:19:41;8.30;99.90
2977;DHT22;1498;51.500;7.440;2023-02-05T17:24:38;8.30;99.90
2977;DHT22;1498;51.500;7.440;2023-02-05T17:27:04;8.30;99.90
2977;DHT22;1498;51.500;7.440;2023-02-05T17:29:34;8.40;99.90
2977;DHT22;1498;51.500;7.440;2023-02-05T17:31:59;8.40;99.90
2977;DHT22;1498;51.500;7.440;2023-02-05T17:34:25;8.40;99.90
2977;DHT22;1498;51.500;7.440;2023-02-05T17:36:50;8.40;99.90
2977;DHT22;1498;51.500;7.440;2023-02-05T17:39:16;8.40;99.90
2977;DHT22;1498;51.500;7.440;2023-02-05T17:41:41;8.40;99.90
2977;DHT22;1498;51.500;7.440;2023-02-05T17:44:26;8.40;99.90
2977;DHT22;1498;51.500;7.440;2023-02-05T17:46:52;8.40;99.90
2977;DHT22;1498;51.500;7.440;2023-02-05T17:49:18;8.40;99.90
2977;DHT22;1498;51.500;7.440;2023-02-05T17:51:44;8.50;99.90
2977;DHT22;1498;51.500;7.440;2023-02-05T17:54:15;8.50;99.90
2977;DHT22;1498;51.500;7.440;2023-02-05T17:56:41;8.50;99.90
2977;DHT22;1498;51.500;7.440;2023-02-05T17:59:17;8.50;99.90
2977;DHT22;1498;51.500;7.440;2023-02-05T18:01:44;8.50;99.90
2977;DHT22;1498;51.500;7.440;2023-02-05T18:04:10;8.50;99.90
2977;DHT22;1498;51.500;7.440;2023-02-05T18:06:36;8.50;99.90
2977;DHT22;1498;51.500;7.440;2023-02-05T18:09:02;8.50;99.90
2977;DHT22;1498;51.500;7.440;2023-02-05T18:11:29;8.50;99.90
2977;DHT22;1498;51.500;7.440;2023-02-05T18:13:55;8.50;99.90
2977;DHT22;1498;51.500;7.440;2023-02-05T18:16:20;8.50;99.90
2977;DHT22;1498;51.500;7.440;2023-02-05T18:18:46;8.50;99.90
2977;DHT22;1498;51.500;7.440;2023-02-05T18:21:12;8.50;99.90
2977;DHT22;1498;51.500;7.440;2023-02-05T18:23:38;8.50;99.90
2977;DHT22;1498;51.500;7.440;2023-02-05T18:26:04;8.50;99.90
2977;DHT22;1498;51.500;7.440;2023-02-05T18:28:30;8.60;99.90
2977;DHT22;1498;51.500;7.440;2023-02-05T18:31:04;8.60;99.90
2977;DHT22;1498;51.500;7.440;2023-02-05T18:33:29;8.50;99.90
2977;DHT22;1498;51.500;7.440;2023-02-05T18:35:59;8.50;99.90
2977;DHT22;1498;51.500;7.440;2023-02-05T18:38:25;8.50;99.90
2977;DHT22;1498;51.500;7.440;2023-02-05T18:40:51;8.50;99.90
2977;DHT22;1498;51.500;7.440;2023-02-05T18:43:17;8.50;99.90
2977;DHT22;1498;51.500;7.440;2023-02-05T18:45:43;8.50;99.90
2977;DHT22;1498;51.500;7.440;2023-02-05T18:48:08;8.40;99.90
2977;DHT22;1498;51.500;7.440;2023-02-05T18:50:34;8.50;99.90
2977;DHT22;1498;51.500;7.440;2023-02-05T18:53:00;8.40;99.90
2977;DHT22;1498;51.500;7.440;2023-02-05T18:55:25;8.50;99.90
2977;DHT22;1498;51.500;7.440;2023-02-05T18:57:51;8.50;99.90
2977;DHT22;1498;51.500;7.440;2023-02-05T19:00:17;8.50;99.90
2977;DHT22;1498;51.500;7.440;2023-02-05T19:02:43;8.50;99.90
2977;DHT22;1498;51.500;7.440;2023-02-05T19:05:09;8.50;99.90
2977;DHT22;1498;51.500;7.440;2023-02-05T19:07:36;8.50;99.90
2977;DHT22;1498;51.500;7.440;2023-02-05T19:10:02;8.40;99.90
2977;DHT22;1498;51.500;7.440;2023-02-05T19:12:28;8.30;99.90
2977;DHT22;1498;51.500;7.440;2023-02-05T19:14:55;8.40;99.90
2977;DHT22;1498;51.500;7.440;2023-02-05T19:17:20;8.40;99.90
2977;DHT22;1498;51.500;7.440;2023-02-05T19:19:48;8.50;99.90
2977;DHT22;1498;51.500;7.440;2023-02-05T19:22:13;8.50;99.90
2977;DHT22;1498;51.500;7.440;2023-02-05T19:24:39;8.50;99.90
2977;DHT22;1498;51.500;7.440;2023-02-05T19:27:05;8.50;99.90
2977;DHT22;1498;51.500;7.440;2023-02-05T19:29:30;8.40;99.90
2977;DHT22;1498;51.500;7.440;2023-02-05T19:32:02;8.40;99.90
2977;DHT22;1498;51.500;7.440;2023-02-05T19:34:29;8.40;99.90
2977;DHT22;1498;51.500;7.440;2023-02-05T19:36:55;8.40;99.90
2977;DHT22;1498;51.500;7.440;2023-02-05T19:39:21;8.40;99.90
2977;DHT22;1498;51.500;7.440;2023-02-05T19:41:46;8.40;99.90
2977;DHT22;1498;51.500;7.440;2023-02-05T19:44:13;8.40;99.90
2977;DHT22;1498;51.500;7.440;2023-02-05T19:46:41;8.40;99.90
2977;DHT22;1498;51.500;7.440;2023-02-05T19:49:16;8.30;99.90
2977;DHT22;1498;51.500;7.440;2023-02-05T19:51:44;8.20;99.90
2977;DHT22;1498;51.500;7.440;2023-02-05T19:54:10;8.20;99.90
2977;DHT22;1498;51.500;7.440;2023-02-05T19:56:35;8.30;99.90
2977;DHT22;1498;51.500;7.440;2023-02-05T19:59:02;8.20;99.90
2977;DHT22;1498;51.500;7.440;2023-02-05T20:01:30;8.20;99.90
2977;DHT22;1498;51.500;7.440;2023-02-05T20:04:18;8.20;99.90
2977;DHT22;1498;51.500;7.440;2023-02-05T20:06:46;8.20;99.90
2977;DHT22;1498;51.500;7.440;2023-02-05T20:09:12;8.20;99.90
2977;DHT22;1498;51.500;7.440;2023-02-05T20:11:40;8.30;99.90
2977;DHT22;1498;51.500;7.440;2023-02-05T20:14:07;8.30;99.90
2977;DHT22;1498;51.500;7.440;2023-02-05T20:16:33;8.20;99.90
2977;DHT22;1498;51.500;7.440;2023-02-05T20:19:00;8.20;99.90
2977;DHT22;1498;51.500;7.440;2023-02-05T20:21:27;8.20;99.90
2977;DHT22;1498;51.500;7.440;2023-02-05T20:23:53;8.20;99.90
2977;DHT22;1498;51.500;7.440;2023-02-05T20:26:20;8.20;99.90
2977;DHT22;1498;51.500;7.440;2023-02-05T20:28:48;8.10;99.90
2977;DHT22;1498;51.500;7.440;2023-02-05T20:31:32;8.20;99.90
2977;DHT22;1498;51.500;7.440;2023-02-05T20:34:04;8.10;99.90
2977;DHT22;1498;51.500;7.440;2023-02-05T20:36:31;8.10;99.90
2977;DHT22;1498;51.500;7.440;2023-02-05T20:38:58;8.10;99.90
2977;DHT22;1498;51.500;7.440;2023-02-05T20:41:24;8.10;99.90
2977;DHT22;1498;51.500;7.440;2023-02-05T20:43:49;8.10;99.90
2977;DHT22;1498;51.500;7.440;2023-02-05T20:46:15;8.20;99.90
2977;DHT22;1498;51.500;7.440;2023-02-05T20:48:41;8.20;99.90
2977;DHT22;1498;51.500;7.440;2023-02-05T20:51:12;8.10;99.90
2977;DHT22;1498;51.500;7.440;2023-02-05T20:53:38;8.10;99.90
2977;DHT22;1498;51.500;7.440;2023-02-05T20:56:07;8.10;99.90